Aérodrome :
LOGIN :

S'inscrire | Disclaimer

   EN    FR    IT 

 










Légende :    VFR   VFR Marginal   IFR   IFR Intensif   IFR Très Intensif
Visi : 
Plafond : 
>= 8 km
>= 3000ft
5 à 8 km
1000 à 3000 ft
1500m à 5 km
500 à 1000 ft
800 à 1500m
200 à 500 ft
< 800m
< 200 ft
Symboles :   Orages  Brouillard  Fortes neiges  Fortes précipitations  Vent > 20 kt
SIGMETs :   Divers  Orages  Givrage  Turbulence  Onde Orograph.  Cendres Volcan.






- Altitude de l'aérodrome : 458 ft


LFSI - St-Dizier

DERNIER METAR :
  • 100500Z AUTO 18004KT CAVOK 00/M00 Q1028

METARs EXPIRÉS :
  • 100430Z AUTO 18003KT CAVOK 00/M01 Q1028
  • 100400Z AUTO 16004KT 9999 FEW049 01/M00 Q1028
  • 100330Z AUTO 21003KT CAVOK 02/00 Q1028
  • 100300Z AUTO 21003KT CAVOK 02/01 Q1027
  • 100230Z AUTO 23003KT 9999 FEW042 BKN052 02/01 Q1027

TAF TAF LFSI
Valide du 10 à 03h jusqu'au 11 à 03h UTC


100200Z 1003/1103 30005KT 3000 BR BKN005
PROB40
TEMPO 1006/1009 0800 FZFG
BECMG 1010/1012 18010KT 9999 NSW SCT020



MET'MAP, la Météo Aéronautique d'un coup d'oeil ! - Copyright ORBIFLY Décembre 2007 - Disclaimer

ORBIFLY MET'MAP TEAM :

Programmation & Développement : Alexandra Zaïnal
Sur une idée originale de : Baudouin d'Aumeries
Assistance à la programmation : Marc-Olivier Méhu
Soutien technique & logistique : Manuel Goepfert

Contact : metmap@orbifly.com




SOURCES & CREDITS :

   NOAA